sensor_id;sensor_type;location;lat;lon;timestamp;P1;P4;P2;P0;N10;N4;N25;N1;N05;TS
62702;SPS30;66022;50.448;18.122;2023-03-01T00:00:53;35.52;;33.64;;;;;;;
62702;SPS30;66022;50.448;18.122;2023-03-01T00:05:06;35.52;;33.64;;;;;;;
62702;SPS30;66022;50.448;18.122;2023-03-01T00:09:20;46.39;;42.89;;;;;;;
62702;SPS30;66022;50.448;18.122;2023-03-01T00:13:34;46.39;;42.89;;;;;;;
62702;SPS30;66022;50.448;18.122;2023-03-01T00:17:48;33.55;;32.55;;;;;;;
62702;SPS30;66022;50.448;18.122;2023-03-01T00:22:02;33.55;;32.55;;;;;;;
62702;SPS30;66022;50.448;18.122;2023-03-01T00:26:16;40.62;;38.61;;;;;;;
62702;SPS30;66022;50.448;18.122;2023-03-01T00:30:30;40.62;;38.61;;;;;;;
62702;SPS30;66022;50.448;18.122;2023-03-01T00:34:44;40.62;;38.61;;;;;;;
62702;SPS30;66022;50.448;18.122;2023-03-01T00:38:58;44.09;;41.10;;;;;;;
62702;SPS30;66022;50.448;18.122;2023-03-01T00:43:12;44.09;;41.10;;;;;;;
62702;SPS30;66022;50.448;18.122;2023-03-01T00:47:28;67.12;;61.09;;;;;;;
62702;SPS30;66022;50.448;18.122;2023-03-01T00:51:40;67.12;;61.09;;;;;;;
62702;SPS30;66022;50.448;18.122;2023-03-01T00:55:54;89.64;;80.56;;;;;;;
62702;SPS30;66022;50.448;18.122;2023-03-01T01:00:08;89.64;;80.56;;;;;;;
62702;SPS30;66022;50.448;18.122;2023-03-01T01:04:22;89.64;;80.56;;;;;;;
62702;SPS30;66022;50.448;18.122;2023-03-01T01:08:36;81.90;;71.38;;;;;;;
62702;SPS30;66022;50.448;18.122;2023-03-01T01:12:50;81.90;;71.38;;;;;;;
62702;SPS30;66022;50.448;18.122;2023-03-01T01:17:04;72.42;;63.47;;;;;;;
62702;SPS30;66022;50.448;18.122;2023-03-01T01:21:19;72.42;;63.47;;;;;;;
62702;SPS30;66022;50.448;18.122;2023-03-01T01:25:33;107.27;;89.94;;;;;;;
62702;SPS30;66022;50.448;18.122;2023-03-01T01:29:46;107.27;;89.94;;;;;;;
62702;SPS30;66022;50.448;18.122;2023-03-01T01:34:00;107.27;;89.94;;;;;;;
62702;SPS30;66022;50.448;18.122;2023-03-01T01:38:14;101.95;;87.39;;;;;;;
62702;SPS30;66022;50.448;18.122;2023-03-01T01:42:28;101.95;;87.39;;;;;;;
62702;SPS30;66022;50.448;18.122;2023-03-01T01:46:46;100.54;;85.37;;;;;;;
62702;SPS30;66022;50.448;18.122;2023-03-01T01:50:59;100.54;;85.37;;;;;;;
62702;SPS30;66022;50.448;18.122;2023-03-01T01:55:11;100.54;;85.37;;;;;;;
62702;SPS30;66022;50.448;18.122;2023-03-01T01:59:24;82.12;;75.08;;;;;;;
62702;SPS30;66022;50.448;18.122;2023-03-01T02:03:38;82.12;;75.08;;;;;;;
62702;SPS30;66022;50.448;18.122;2023-03-01T02:07:52;102.35;;88.54;;;;;;;
62702;SPS30;66022;50.448;18.122;2023-03-01T02:12:06;102.35;;88.54;;;;;;;
62702;SPS30;66022;50.448;18.122;2023-03-01T02:16:20;91.55;;81.69;;;;;;;
62702;SPS30;66022;50.448;18.122;2023-03-01T02:29:02;90.51;;81.10;;;;;;;
62702;SPS30;66022;50.448;18.122;2023-03-01T02:33:18;90.51;;81.10;;;;;;;
62702;SPS30;66022;50.448;18.122;2023-03-01T02:37:30;71.26;;66.61;;;;;;;
62702;SPS30;66022;50.448;18.122;2023-03-01T02:41:46;71.26;;66.61;;;;;;;
62702;SPS30;66022;50.448;18.122;2023-03-01T02:46:03;101.27;;89.22;;;;;;;
62702;SPS30;66022;50.448;18.122;2023-03-01T02:58:40;69.39;;64.45;;;;;;;
62702;SPS30;66022;50.448;18.122;2023-03-01T03:02:54;69.39;;64.45;;;;;;;
62702;SPS30;66022;50.448;18.122;2023-03-01T03:07:08;77.73;;69.53;;;;;;;
62702;SPS30;66022;50.448;18.122;2023-03-01T03:11:25;77.73;;69.53;;;;;;;
62702;SPS30;66022;50.448;18.122;2023-03-01T03:15:36;77.73;;69.53;;;;;;;
62702;SPS30;66022;50.448;18.122;2023-03-01T03:19:50;58.95;;55.03;;;;;;;
62702;SPS30;66022;50.448;18.122;2023-03-01T03:24:04;58.95;;55.03;;;;;;;
62702;SPS30;66022;50.448;18.122;2023-03-01T03:28:18;66.88;;62.53;;;;;;;
62702;SPS30;66022;50.448;18.122;2023-03-01T03:32:32;66.88;;62.53;;;;;;;
62702;SPS30;66022;50.448;18.122;2023-03-01T03:36:46;61.50;;56.18;;;;;;;
62702;SPS30;66022;50.448;18.122;2023-03-01T03:41:04;61.50;;56.18;;;;;;;
62702;SPS30;66022;50.448;18.122;2023-03-01T03:45:14;61.50;;56.18;;;;;;;
62702;SPS30;66022;50.448;18.122;2023-03-01T03:49:28;119.09;;104.55;;;;;;;
62702;SPS30;66022;50.448;18.122;2023-03-01T03:53:42;119.09;;104.55;;;;;;;
62702;SPS30;66022;50.448;18.122;2023-03-01T03:57:58;61.85;;54.89;;;;;;;
62702;SPS30;66022;50.448;18.122;2023-03-01T04:02:10;61.85;;54.89;;;;;;;
62702;SPS30;66022;50.448;18.122;2023-03-01T04:06:24;48.51;;46.24;;;;;;;
62702;SPS30;66022;50.448;18.122;2023-03-01T04:10:47;48.51;;46.24;;;;;;;
62702;SPS30;66022;50.448;18.122;2023-03-01T04:14:52;48.51;;46.24;;;;;;;
62702;SPS30;66022;50.448;18.122;2023-03-01T04:19:06;49.14;;45.73;;;;;;;
62702;SPS30;66022;50.448;18.122;2023-03-01T04:23:22;49.14;;45.73;;;;;;;
62702;SPS30;66022;50.448;18.122;2023-03-01T04:27:34;56.82;;51.61;;;;;;;
62702;SPS30;66022;50.448;18.122;2023-03-01T04:31:48;56.82;;51.61;;;;;;;
62702;SPS30;66022;50.448;18.122;2023-03-01T04:36:02;71.74;;61.06;;;;;;;
62702;SPS30;66022;50.448;18.122;2023-03-01T04:40:16;71.74;;61.06;;;;;;;
62702;SPS30;66022;50.448;18.122;2023-03-01T04:44:30;71.74;;61.06;;;;;;;
62702;SPS30;66022;50.448;18.122;2023-03-01T04:48:44;73.50;;62.95;;;;;;;
62702;SPS30;66022;50.448;18.122;2023-03-01T04:52:58;73.50;;62.95;;;;;;;
62702;SPS30;66022;50.448;18.122;2023-03-01T04:57:12;78.96;;72.81;;;;;;;
62702;SPS30;66022;50.448;18.122;2023-03-01T05:01:26;78.96;;72.81;;;;;;;
62702;SPS30;66022;50.448;18.122;2023-03-01T05:05:40;57.95;;53.05;;;;;;;
62702;SPS30;66022;50.448;18.122;2023-03-01T05:09:54;57.95;;53.05;;;;;;;
62702;SPS30;66022;50.448;18.122;2023-03-01T05:14:08;57.95;;53.05;;;;;;;
62702;SPS30;66022;50.448;18.122;2023-03-01T05:18:22;63.38;;53.37;;;;;;;
62702;SPS30;66022;50.448;18.122;2023-03-01T05:22:36;63.38;;53.37;;;;;;;
62702;SPS30;66022;50.448;18.122;2023-03-01T05:26:50;80.24;;70.59;;;;;;;
62702;SPS30;66022;50.448;18.122;2023-03-01T05:31:04;80.24;;70.59;;;;;;;
62702;SPS30;66022;50.448;18.122;2023-03-01T05:35:18;80.24;;70.59;;;;;;;
62702;SPS30;66022;50.448;18.122;2023-03-01T05:39:32;52.22;;46.42;;;;;;;
62702;SPS30;66022;50.448;18.122;2023-03-01T05:43:46;52.22;;46.42;;;;;;;
62702;SPS30;66022;50.448;18.122;2023-03-01T05:48:00;61.97;;59.20;;;;;;;
62702;SPS30;66022;50.448;18.122;2023-03-01T05:52:15;61.97;;59.20;;;;;;;
62702;SPS30;66022;50.448;18.122;2023-03-01T05:56:29;61.88;;55.44;;;;;;;
62702;SPS30;66022;50.448;18.122;2023-03-01T06:00:43;61.88;;55.44;;;;;;;
62702;SPS30;66022;50.448;18.122;2023-03-01T06:04:57;61.88;;55.44;;;;;;;
62702;SPS30;66022;50.448;18.122;2023-03-01T06:09:11;75.85;;65.01;;;;;;;
62702;SPS30;66022;50.448;18.122;2023-03-01T06:13:25;75.85;;65.01;;;;;;;
62702;SPS30;66022;50.448;18.122;2023-03-01T06:17:39;79.51;;70.00;;;;;;;
62702;SPS30;66022;50.448;18.122;2023-03-01T06:21:53;79.51;;70.00;;;;;;;
62702;SPS30;66022;50.448;18.122;2023-03-01T06:26:07;96.23;;79.11;;;;;;;
62702;SPS30;66022;50.448;18.122;2023-03-01T06:30:21;96.23;;79.11;;;;;;;
62702;SPS30;66022;50.448;18.122;2023-03-01T06:34:35;96.23;;79.11;;;;;;;
62702;SPS30;66022;50.448;18.122;2023-03-01T06:38:49;89.74;;81.86;;;;;;;
62702;SPS30;66022;50.448;18.122;2023-03-01T06:43:03;89.74;;81.86;;;;;;;
62702;SPS30;66022;50.448;18.122;2023-03-01T06:47:17;85.72;;77.36;;;;;;;
62702;SPS30;66022;50.448;18.122;2023-03-01T06:51:31;85.72;;77.36;;;;;;;
62702;SPS30;66022;50.448;18.122;2023-03-01T06:55:45;85.96;;72.09;;;;;;;
62702;SPS30;66022;50.448;18.122;2023-03-01T06:59:59;85.96;;72.09;;;;;;;
62702;SPS30;66022;50.448;18.122;2023-03-01T07:04:13;85.96;;72.09;;;;;;;
62702;SPS30;66022;50.448;18.122;2023-03-01T07:08:27;91.12;;85.64;;;;;;;
62702;SPS30;66022;50.448;18.122;2023-03-01T07:12:41;91.12;;85.64;;;;;;;
62702;SPS30;66022;50.448;18.122;2023-03-01T07:16:55;107.71;;101.77;;;;;;;
62702;SPS30;66022;50.448;18.122;2023-03-01T07:21:12;107.71;;101.77;;;;;;;
62702;SPS30;66022;50.448;18.122;2023-03-01T07:25:23;107.71;;101.77;;;;;;;
62702;SPS30;66022;50.448;18.122;2023-03-01T07:29:37;66.84;;62.60;;;;;;;
62702;SPS30;66022;50.448;18.122;2023-03-01T07:33:51;66.84;;62.60;;;;;;;
62702;SPS30;66022;50.448;18.122;2023-03-01T07:38:05;59.63;;56.19;;;;;;;
62702;SPS30;66022;50.448;18.122;2023-03-01T07:42:19;59.63;;56.19;;;;;;;
62702;SPS30;66022;50.448;18.122;2023-03-01T07:46:33;69.52;;65.64;;;;;;;
62702;SPS30;66022;50.448;18.122;2023-03-01T07:50:47;69.52;;65.64;;;;;;;
62702;SPS30;66022;50.448;18.122;2023-03-01T07:55:00;69.52;;65.64;;;;;;;
62702;SPS30;66022;50.448;18.122;2023-03-01T07:59:15;79.42;;74.07;;;;;;;
62702;SPS30;66022;50.448;18.122;2023-03-01T08:03:29;79.42;;74.07;;;;;;;
62702;SPS30;66022;50.448;18.122;2023-03-01T08:07:43;72.73;;67.94;;;;;;;
62702;SPS30;66022;50.448;18.122;2023-03-01T08:11:57;72.73;;67.94;;;;;;;
62702;SPS30;66022;50.448;18.122;2023-03-01T08:16:11;62.76;;58.84;;;;;;;
62702;SPS30;66022;50.448;18.122;2023-03-01T08:20:24;62.76;;58.84;;;;;;;
62702;SPS30;66022;50.448;18.122;2023-03-01T08:24:39;62.76;;58.84;;;;;;;
62702;SPS30;66022;50.448;18.122;2023-03-01T08:28:52;57.77;;56.38;;;;;;;
62702;SPS30;66022;50.448;18.122;2023-03-01T08:33:06;57.77;;56.38;;;;;;;
62702;SPS30;66022;50.448;18.122;2023-03-01T08:37:24;64.73;;58.16;;;;;;;
62702;SPS30;66022;50.448;18.122;2023-03-01T08:41:35;64.73;;58.16;;;;;;;
62702;SPS30;66022;50.448;18.122;2023-03-01T08:45:48;56.67;;52.83;;;;;;;
62702;SPS30;66022;50.448;18.122;2023-03-01T08:54:18;56.67;;52.83;;;;;;;
62702;SPS30;66022;50.448;18.122;2023-03-01T08:58:31;62.91;;57.52;;;;;;;
62702;SPS30;66022;50.448;18.122;2023-03-01T09:02:44;62.91;;57.52;;;;;;;
62702;SPS30;66022;50.448;18.122;2023-03-01T09:06:59;62.58;;57.53;;;;;;;
62702;SPS30;66022;50.448;18.122;2023-03-01T09:11:14;62.58;;57.53;;;;;;;
62702;SPS30;66022;50.448;18.122;2023-03-01T09:15:26;62.58;;57.53;;;;;;;
62702;SPS30;66022;50.448;18.122;2023-03-01T09:19:40;45.42;;42.75;;;;;;;
62702;SPS30;66022;50.448;18.122;2023-03-01T09:23:55;45.42;;42.75;;;;;;;
62702;SPS30;66022;50.448;18.122;2023-03-01T09:28:08;54.56;;50.30;;;;;;;
62702;SPS30;66022;50.448;18.122;2023-03-01T09:32:22;54.56;;50.30;;;;;;;
62702;SPS30;66022;50.448;18.122;2023-03-01T09:36:36;32.22;;31.19;;;;;;;
62702;SPS30;66022;50.448;18.122;2023-03-01T09:40:50;32.22;;31.19;;;;;;;
62702;SPS30;66022;50.448;18.122;2023-03-01T09:45:05;32.22;;31.19;;;;;;;
62702;SPS30;66022;50.448;18.122;2023-03-01T09:49:23;39.88;;35.87;;;;;;;
62702;SPS30;66022;50.448;18.122;2023-03-01T09:53:32;39.88;;35.87;;;;;;;
62702;SPS30;66022;50.448;18.122;2023-03-01T10:06:15;41.66;;38.02;;;;;;;
62702;SPS30;66022;50.448;18.122;2023-03-01T10:10:32;41.66;;38.02;;;;;;;
62702;SPS30;66022;50.448;18.122;2023-03-01T10:18:59;56.99;;54.14;;;;;;;
62702;SPS30;66022;50.448;18.122;2023-03-01T10:23:10;56.99;;54.14;;;;;;;
62702;SPS30;66022;50.448;18.122;2023-03-01T10:27:25;45.94;;42.96;;;;;;;
62702;SPS30;66022;50.448;18.122;2023-03-01T10:31:40;45.94;;42.96;;;;;;;
62702;SPS30;66022;50.448;18.122;2023-03-01T10:35:53;53.33;;48.90;;;;;;;
62702;SPS30;66022;50.448;18.122;2023-03-01T10:40:07;53.33;;48.90;;;;;;;
62702;SPS30;66022;50.448;18.122;2023-03-01T10:44:42;53.33;;48.90;;;;;;;
62702;SPS30;66022;50.448;18.122;2023-03-01T10:48:34;51.43;;49.44;;;;;;;
62702;SPS30;66022;50.448;18.122;2023-03-01T10:57:03;38.61;;38.09;;;;;;;
62702;SPS30;66022;50.448;18.122;2023-03-01T11:05:30;38.61;;38.09;;;;;;;
62702;SPS30;66022;50.448;18.122;2023-03-01T11:09:44;37.09;;36.06;;;;;;;
62702;SPS30;66022;50.448;18.122;2023-03-01T11:13:59;37.09;;36.06;;;;;;;
62702;SPS30;66022;50.448;18.122;2023-03-01T11:18:18;36.39;;34.55;;;;;;;
62702;SPS30;66022;50.448;18.122;2023-03-01T11:22:27;36.39;;34.55;;;;;;;
62702;SPS30;66022;50.448;18.122;2023-03-01T11:26:41;31.00;;30.88;;;;;;;
62702;SPS30;66022;50.448;18.122;2023-03-01T11:35:29;31.00;;30.88;;;;;;;
62702;SPS30;66022;50.448;18.122;2023-03-01T11:43:41;32.35;;31.65;;;;;;;
62702;SPS30;66022;50.448;18.122;2023-03-01T12:09:11;43.94;;41.75;;;;;;;
62702;SPS30;66022;50.448;18.122;2023-03-01T12:13:22;43.94;;41.75;;;;;;;
62702;SPS30;66022;50.448;18.122;2023-03-01T12:51:23;31.83;;31.24;;;;;;;
62702;SPS30;66022;50.448;18.122;2023-03-01T12:55:38;31.83;;31.24;;;;;;;
62702;SPS30;66022;50.448;18.122;2023-03-01T12:59:52;35.61;;32.68;;;;;;;
62702;SPS30;66022;50.448;18.122;2023-03-01T13:04:12;35.61;;32.68;;;;;;;
62702;SPS30;66022;50.448;18.122;2023-03-01T13:08:27;33.20;;31.59;;;;;;;
62702;SPS30;66022;50.448;18.122;2023-03-01T13:16:45;32.42;;30.20;;;;;;;
62702;SPS30;66022;50.448;18.122;2023-03-01T13:21:04;32.42;;30.20;;;;;;;
62702;SPS30;66022;50.448;18.122;2023-03-01T13:25:18;32.42;;30.20;;;;;;;
62702;SPS30;66022;50.448;18.122;2023-03-01T13:29:27;42.04;;38.07;;;;;;;
62702;SPS30;66022;50.448;18.122;2023-03-01T13:37:57;39.81;;35.60;;;;;;;
62702;SPS30;66022;50.448;18.122;2023-03-01T13:46:23;34.29;;33.27;;;;;;;
62702;SPS30;66022;50.448;18.122;2023-03-01T13:50:38;34.29;;33.27;;;;;;;
62702;SPS30;66022;50.448;18.122;2023-03-01T13:54:51;34.29;;33.27;;;;;;;
62702;SPS30;66022;50.448;18.122;2023-03-01T13:59:26;33.29;;30.94;;;;;;;
62702;SPS30;66022;50.448;18.122;2023-03-01T14:03:19;33.29;;30.94;;;;;;;
62702;SPS30;66022;50.448;18.122;2023-03-01T14:07:33;38.03;;36.31;;;;;;;
62702;SPS30;66022;50.448;18.122;2023-03-01T14:20:19;33.71;;30.21;;;;;;;
62702;SPS30;66022;50.448;18.122;2023-03-01T14:24:29;33.71;;30.21;;;;;;;
62702;SPS30;66022;50.448;18.122;2023-03-01T14:28:43;30.36;;28.73;;;;;;;
62702;SPS30;66022;50.448;18.122;2023-03-01T14:32:58;30.36;;28.73;;;;;;;
62702;SPS30;66022;50.448;18.122;2023-03-01T14:37:16;39.43;;39.24;;;;;;;
62702;SPS30;66022;50.448;18.122;2023-03-01T14:41:25;39.43;;39.24;;;;;;;
62702;SPS30;66022;50.448;18.122;2023-03-01T14:45:39;33.19;;30.31;;;;;;;
62702;SPS30;66022;50.448;18.122;2023-03-01T14:49:56;33.19;;30.31;;;;;;;
62702;SPS30;66022;50.448;18.122;2023-03-01T14:58:24;43.06;;38.33;;;;;;;
62702;SPS30;66022;50.448;18.122;2023-03-01T15:02:35;43.06;;38.33;;;;;;;
62702;SPS30;66022;50.448;18.122;2023-03-01T15:06:52;45.83;;41.10;;;;;;;
62702;SPS30;66022;50.448;18.122;2023-03-01T15:11:04;45.83;;41.10;;;;;;;
62702;SPS30;66022;50.448;18.122;2023-03-01T15:19:31;56.27;;53.24;;;;;;;
62702;SPS30;66022;50.448;18.122;2023-03-01T15:23:52;56.27;;53.24;;;;;;;
62702;SPS30;66022;50.448;18.122;2023-03-01T15:27:59;28.32;;28.20;;;;;;;
62702;SPS30;66022;50.448;18.122;2023-03-01T15:36:32;33.21;;32.47;;;;;;;
62702;SPS30;66022;50.448;18.122;2023-03-01T15:40:48;33.21;;32.47;;;;;;;
62702;SPS30;66022;50.448;18.122;2023-03-01T15:53:23;36.02;;33.29;;;;;;;
62702;SPS30;66022;50.448;18.122;2023-03-01T15:57:39;42.22;;40.70;;;;;;;
62702;SPS30;66022;50.448;18.122;2023-03-01T16:01:51;42.22;;40.70;;;;;;;
62702;SPS30;66022;50.448;18.122;2023-03-01T16:06:05;59.10;;54.49;;;;;;;
62702;SPS30;66022;50.448;18.122;2023-03-01T16:10:20;59.10;;54.49;;;;;;;
62702;SPS30;66022;50.448;18.122;2023-03-01T16:14:33;59.10;;54.49;;;;;;;
62702;SPS30;66022;50.448;18.122;2023-03-01T16:18:47;53.84;;53.80;;;;;;;
62702;SPS30;66022;50.448;18.122;2023-03-01T16:23:01;53.84;;53.80;;;;;;;
62702;SPS30;66022;50.448;18.122;2023-03-01T16:27:21;45.81;;45.79;;;;;;;
62702;SPS30;66022;50.448;18.122;2023-03-01T16:31:29;45.81;;45.79;;;;;;;
62702;SPS30;66022;50.448;18.122;2023-03-01T16:35:43;36.28;;35.62;;;;;;;
62702;SPS30;66022;50.448;18.122;2023-03-01T16:39:57;36.28;;35.62;;;;;;;
62702;SPS30;66022;50.448;18.122;2023-03-01T16:44:11;36.28;;35.62;;;;;;;
62702;SPS30;66022;50.448;18.122;2023-03-01T16:48:25;139.52;;131.65;;;;;;;
62702;SPS30;66022;50.448;18.122;2023-03-01T16:52:39;139.52;;131.65;;;;;;;
62702;SPS30;66022;50.448;18.122;2023-03-01T16:56:53;93.07;;87.50;;;;;;;
62702;SPS30;66022;50.448;18.122;2023-03-01T17:01:17;93.07;;87.50;;;;;;;
62702;SPS30;66022;50.448;18.122;2023-03-01T17:05:21;93.07;;87.50;;;;;;;
62702;SPS30;66022;50.448;18.122;2023-03-01T17:09:35;34.45;;33.26;;;;;;;
62702;SPS30;66022;50.448;18.122;2023-03-01T17:13:49;34.45;;33.26;;;;;;;
62702;SPS30;66022;50.448;18.122;2023-03-01T17:18:03;43.92;;42.03;;;;;;;
62702;SPS30;66022;50.448;18.122;2023-03-01T17:22:17;43.92;;42.03;;;;;;;
62702;SPS30;66022;50.448;18.122;2023-03-01T17:26:31;51.11;;45.03;;;;;;;
62702;SPS30;66022;50.448;18.122;2023-03-01T17:30:45;51.11;;45.03;;;;;;;
62702;SPS30;66022;50.448;18.122;2023-03-01T17:34:59;51.11;;45.03;;;;;;;
62702;SPS30;66022;50.448;18.122;2023-03-01T17:39:13;51.41;;47.64;;;;;;;
62702;SPS30;66022;50.448;18.122;2023-03-01T17:43:27;51.41;;47.64;;;;;;;
62702;SPS30;66022;50.448;18.122;2023-03-01T17:47:42;50.95;;48.13;;;;;;;
62702;SPS30;66022;50.448;18.122;2023-03-01T17:51:55;50.95;;48.13;;;;;;;
62702;SPS30;66022;50.448;18.122;2023-03-01T17:56:16;54.24;;49.13;;;;;;;
62702;SPS30;66022;50.448;18.122;2023-03-01T18:00:28;54.24;;49.13;;;;;;;
62702;SPS30;66022;50.448;18.122;2023-03-01T18:04:40;54.24;;49.13;;;;;;;
62702;SPS30;66022;50.448;18.122;2023-03-01T18:08:52;61.65;;54.98;;;;;;;
62702;SPS30;66022;50.448;18.122;2023-03-01T18:13:05;61.65;;54.98;;;;;;;
62702;SPS30;66022;50.448;18.122;2023-03-01T18:17:20;50.04;;45.99;;;;;;;
62702;SPS30;66022;50.448;18.122;2023-03-01T18:21:33;50.04;;45.99;;;;;;;
62702;SPS30;66022;50.448;18.122;2023-03-01T18:25:48;51.15;;47.52;;;;;;;
62702;SPS30;66022;50.448;18.122;2023-03-01T18:30:03;51.15;;47.52;;;;;;;
62702;SPS30;66022;50.448;18.122;2023-03-01T18:34:15;51.15;;47.52;;;;;;;
62702;SPS30;66022;50.448;18.122;2023-03-01T18:38:29;60.10;;53.10;;;;;;;
62702;SPS30;66022;50.448;18.122;2023-03-01T18:42:43;60.10;;53.10;;;;;;;
62702;SPS30;66022;50.448;18.122;2023-03-01T18:51:13;52.93;;49.65;;;;;;;
62702;SPS30;66022;50.448;18.122;2023-03-01T18:55:25;52.93;;49.65;;;;;;;
62702;SPS30;66022;50.448;18.122;2023-03-01T18:59:39;44.15;;40.99;;;;;;;
62702;SPS30;66022;50.448;18.122;2023-03-01T19:03:56;44.15;;40.99;;;;;;;
62702;SPS30;66022;50.448;18.122;2023-03-01T19:08:10;44.97;;43.49;;;;;;;
62702;SPS30;66022;50.448;18.122;2023-03-01T19:12:21;44.97;;43.49;;;;;;;
62702;SPS30;66022;50.448;18.122;2023-03-01T19:16:35;41.41;;39.23;;;;;;;
62702;SPS30;66022;50.448;18.122;2023-03-01T19:20:56;41.41;;39.23;;;;;;;
62702;SPS30;66022;50.448;18.122;2023-03-01T19:25:04;41.41;;39.23;;;;;;;
62702;SPS30;66022;50.448;18.122;2023-03-01T19:29:17;43.21;;39.51;;;;;;;
62702;SPS30;66022;50.448;18.122;2023-03-01T19:33:32;43.21;;39.51;;;;;;;
62702;SPS30;66022;50.448;18.122;2023-03-01T19:37:45;40.55;;37.81;;;;;;;
62702;SPS30;66022;50.448;18.122;2023-03-01T19:41:59;40.55;;37.81;;;;;;;
62702;SPS30;66022;50.448;18.122;2023-03-01T19:46:13;44.36;;41.02;;;;;;;
62702;SPS30;66022;50.448;18.122;2023-03-01T19:50:27;44.36;;41.02;;;;;;;
62702;SPS30;66022;50.448;18.122;2023-03-01T19:54:41;44.36;;41.02;;;;;;;
62702;SPS30;66022;50.448;18.122;2023-03-01T19:58:55;36.38;;35.24;;;;;;;
62702;SPS30;66022;50.448;18.122;2023-03-01T20:03:09;36.38;;35.24;;;;;;;
62702;SPS30;66022;50.448;18.122;2023-03-01T20:07:26;41.15;;37.22;;;;;;;
62702;SPS30;66022;50.448;18.122;2023-03-01T20:11:37;41.15;;37.22;;;;;;;
62702;SPS30;66022;50.448;18.122;2023-03-01T20:15:51;40.73;;36.85;;;;;;;
62702;SPS30;66022;50.448;18.122;2023-03-01T20:20:05;40.73;;36.85;;;;;;;
62702;SPS30;66022;50.448;18.122;2023-03-01T20:24:22;40.73;;36.85;;;;;;;
62702;SPS30;66022;50.448;18.122;2023-03-01T20:28:34;44.99;;39.89;;;;;;;
62702;SPS30;66022;50.448;18.122;2023-03-01T20:32:47;44.99;;39.89;;;;;;;
62702;SPS30;66022;50.448;18.122;2023-03-01T20:37:01;37.04;;34.93;;;;;;;
62702;SPS30;66022;50.448;18.122;2023-03-01T20:41:15;37.04;;34.93;;;;;;;
62702;SPS30;66022;50.448;18.122;2023-03-01T20:45:29;37.04;;34.93;;;;;;;
62702;SPS30;66022;50.448;18.122;2023-03-01T20:49:44;38.92;;36.51;;;;;;;
62702;SPS30;66022;50.448;18.122;2023-03-01T20:53:58;38.92;;36.51;;;;;;;
62702;SPS30;66022;50.448;18.122;2023-03-01T20:58:12;57.23;;46.69;;;;;;;
62702;SPS30;66022;50.448;18.122;2023-03-01T21:02:25;57.23;;46.69;;;;;;;
62702;SPS30;66022;50.448;18.122;2023-03-01T21:06:39;38.74;;35.59;;;;;;;
62702;SPS30;66022;50.448;18.122;2023-03-01T21:10:54;38.74;;35.59;;;;;;;
62702;SPS30;66022;50.448;18.122;2023-03-01T21:15:07;38.74;;35.59;;;;;;;
62702;SPS30;66022;50.448;18.122;2023-03-01T21:19:21;37.17;;33.88;;;;;;;
62702;SPS30;66022;50.448;18.122;2023-03-01T21:23:36;37.17;;33.88;;;;;;;
62702;SPS30;66022;50.448;18.122;2023-03-01T21:27:49;37.98;;32.99;;;;;;;
62702;SPS30;66022;50.448;18.122;2023-03-01T21:32:04;37.98;;32.99;;;;;;;
62702;SPS30;66022;50.448;18.122;2023-03-01T21:36:18;35.50;;32.27;;;;;;;
62702;SPS30;66022;50.448;18.122;2023-03-01T21:40:31;35.50;;32.27;;;;;;;
62702;SPS30;66022;50.448;18.122;2023-03-01T21:44:45;35.50;;32.27;;;;;;;
62702;SPS30;66022;50.448;18.122;2023-03-01T21:48:59;30.00;;29.04;;;;;;;
62702;SPS30;66022;50.448;18.122;2023-03-01T21:53:13;30.00;;29.04;;;;;;;
62702;SPS30;66022;50.448;18.122;2023-03-01T21:57:28;33.42;;29.86;;;;;;;
62702;SPS30;66022;50.448;18.122;2023-03-01T22:01:42;33.42;;29.86;;;;;;;
62702;SPS30;66022;50.448;18.122;2023-03-01T22:05:56;33.71;;30.92;;;;;;;
62702;SPS30;66022;50.448;18.122;2023-03-01T22:10:10;33.71;;30.92;;;;;;;
62702;SPS30;66022;50.448;18.122;2023-03-01T22:14:24;33.71;;30.92;;;;;;;
62702;SPS30;66022;50.448;18.122;2023-03-01T22:18:37;87.13;;79.75;;;;;;;
62702;SPS30;66022;50.448;18.122;2023-03-01T22:22:52;87.13;;79.75;;;;;;;
62702;SPS30;66022;50.448;18.122;2023-03-01T22:27:09;79.41;;73.68;;;;;;;
62702;SPS30;66022;50.448;18.122;2023-03-01T22:31:20;79.41;;73.68;;;;;;;
62702;SPS30;66022;50.448;18.122;2023-03-01T22:35:34;79.41;;73.68;;;;;;;
62702;SPS30;66022;50.448;18.122;2023-03-01T22:39:48;61.71;;58.42;;;;;;;
62702;SPS30;66022;50.448;18.122;2023-03-01T22:44:02;61.71;;58.42;;;;;;;
62702;SPS30;66022;50.448;18.122;2023-03-01T22:48:16;68.49;;62.01;;;;;;;
62702;SPS30;66022;50.448;18.122;2023-03-01T22:52:29;68.49;;62.01;;;;;;;
62702;SPS30;66022;50.448;18.122;2023-03-01T22:56:43;75.76;;68.96;;;;;;;
62702;SPS30;66022;50.448;18.122;2023-03-01T23:00:57;75.76;;68.96;;;;;;;
62702;SPS30;66022;50.448;18.122;2023-03-01T23:05:12;75.76;;68.96;;;;;;;
62702;SPS30;66022;50.448;18.122;2023-03-01T23:09:29;72.91;;68.25;;;;;;;
62702;SPS30;66022;50.448;18.122;2023-03-01T23:13:40;72.91;;68.25;;;;;;;
62702;SPS30;66022;50.448;18.122;2023-03-01T23:17:54;83.85;;73.04;;;;;;;
62702;SPS30;66022;50.448;18.122;2023-03-01T23:22:08;83.85;;73.04;;;;;;;
62702;SPS30;66022;50.448;18.122;2023-03-01T23:26:23;68.63;;62.31;;;;;;;
62702;SPS30;66022;50.448;18.122;2023-03-01T23:30:36;68.63;;62.31;;;;;;;
62702;SPS30;66022;50.448;18.122;2023-03-01T23:34:50;68.63;;62.31;;;;;;;
62702;SPS30;66022;50.448;18.122;2023-03-01T23:39:05;101.71;;92.48;;;;;;;
62702;SPS30;66022;50.448;18.122;2023-03-01T23:43:18;101.71;;92.48;;;;;;;
62702;SPS30;66022;50.448;18.122;2023-03-01T23:47:32;99.99;;91.50;;;;;;;
62702;SPS30;66022;50.448;18.122;2023-03-01T23:51:46;99.99;;91.50;;;;;;;
62702;SPS30;66022;50.448;18.122;2023-03-01T23:56:00;118.91;;104.51;;;;;;;
